Terminal Aerodrome Forecast
Issued by NWS Cleveland, OH

Home | Current Version | Previous Version | Graphics & Text | Print | Product List | Glossary On
Versions: 1 2 3 4 5 6 7 8 9 10 11 12 13 14 15 16 17 18 19
000
FTUS41 KCLE 180500
TAFCAK
TAF
KCAK 180537Z 1806/1906 05004KT P6SM FEW020 BKN070
     FM180900 07004KT 4SM BR OVC025
     FM181400 09005KT P6SM OVC025
     FM181700 04006KT P6SM BKN035 OVC070
     FM182000 02007KT P6SM VCSH BKN100
     FM190000 02005KT P6SM BKN250=

USA.gov is the U.S. government's official web portal to all federal, state and local government web resources and services.